Time;durP1;ratioP1;P1;durP2;ratioP2;P2;SDS_P1;SDS_P2;PMS_P1;PMS_P2;Temp;Humidity;BMP_temperature;BMP_pressure;BME280_temperature;BME280_humidity;BME280_pressure;Samples;Min_cycle;Max_cycle;Signal;HPM_P1;HPM_P2
2021/03/22 00:01:37;;;;;;;11.87;8.27;;;;;;;;;;5100003;28;20282;-76
2021/03/22 00:04:06;;;;;;;12.23;7.80;;;;;;;;;;5099309;28;20209;-77
2021/03/22 00:06:33;;;;;;;14.70;8.33;;;;;;;;;;5106634;28;20244;-75
2021/03/22 00:09:00;;;;;;;10.33;7.03;;;;;;;;;;5120440;28;20226;-76
2021/03/22 00:11:27;;;;;;;12.70;8.03;;;;;;;;;;5120275;28;20265;-75
2021/03/22 00:13:54;;;;;;;13.57;8.03;;;;;;;;;;5120491;28;20236;-76
2021/03/22 00:16:21;;;;;;;11.57;7.70;;;;;;;;;;5119972;28;20281;-76
2021/03/22 00:18:48;;;;;;;15.80;8.83;;;;;;;;;;5120163;28;20235;-78
2021/03/22 00:21:16;;;;;;;13.93;8.00;;;;;;;;;;5119930;28;20208;-79
2021/03/22 00:23:43;;;;;;;13.83;8.77;;;;;;;;;;5119961;28;20235;-77
2021/03/22 00:26:10;;;;;;;15.80;9.23;;;;;;;;;;5111353;28;20719;-78
2021/03/22 00:28:39;;;;;;;12.70;8.13;;;;;;;;;;5099191;28;20241;-76
2021/03/22 00:31:07;;;;;;;14.53;8.93;;;;;;;;;;5099413;28;20198;-76
2021/03/22 00:33:34;;;;;;;14.00;8.50;;;;;;;;;;5099201;28;21663;-77
2021/03/22 00:36:01;;;;;;;12.33;8.23;;;;;;;;;;5106053;28;20225;-78
2021/03/22 00:38:29;;;;;;;14.17;8.40;;;;;;;;;;5099076;28;20213;-76
2021/03/22 00:40:56;;;;;;;12.07;8.90;;;;;;;;;;5099235;28;20228;-76
2021/03/22 00:43:24;;;;;;;13.80;8.60;;;;;;;;;;5099062;28;20264;-78
2021/03/22 00:45:53;;;;;;;12.90;8.17;;;;;;;;;;5105420;28;20225;-76
2021/03/22 00:48:20;;;;;;;14.57;9.43;;;;;;;;;;5101458;28;20718;-75
2021/03/22 00:50:47;;;;;;;13.53;8.50;;;;;;;;;;5098939;28;20213;-78
2021/03/22 00:53:15;;;;;;;12.47;8.40;;;;;;;;;;5098741;28;20214;-77
2021/03/22 00:55:43;;;;;;;13.13;8.90;;;;;;;;;;5098803;28;20225;-76
2021/03/22 00:58:10;;;;;;;14.67;8.90;;;;;;;;;;5098959;28;20748;-77
2021/03/22 01:00:38;;;;;;;13.43;9.37;;;;;;;;;;5098976;28;20212;-76
2021/03/22 01:03:07;;;;;;;15.97;9.70;;;;;;;;;;5098567;28;20769;-77
2021/03/22 01:05:34;;;;;;;19.03;10.13;;;;;;;;;;5098801;28;20230;-77
2021/03/22 01:08:01;;;;;;;17.67;9.33;;;;;;;;;;5098326;28;20197;-76
2021/03/22 01:10:33;;;;;;;16.40;10.00;;;;;;;;;;5098832;28;20255;-76
2021/03/22 01:13:01;;;;;;;17.83;10.80;;;;;;;;;;5098721;28;20201;-77
2021/03/22 01:15:28;;;;;;;19.30;11.20;;;;;;;;;;5098640;28;20256;-76
2021/03/22 01:17:56;;;;;;;17.43;11.03;;;;;;;;;;5098697;28;20217;-76
2021/03/22 01:20:26;;;;;;;17.63;10.40;;;;;;;;;;5098411;28;20198;-76
2021/03/22 01:22:52;;;;;;;18.27;11.00;;;;;;;;;;5098064;28;20307;-77
2021/03/22 01:25:20;;;;;;;15.57;10.27;;;;;;;;;;5111983;28;20221;-76
2021/03/22 01:27:47;;;;;;;17.57;11.03;;;;;;;;;;5098559;28;20241;-76
2021/03/22 01:30:17;;;;;;;18.90;10.73;;;;;;;;;;5098162;28;20275;-77
2021/03/22 01:32:44;;;;;;;16.93;10.87;;;;;;;;;;5098516;28;20289;-77
2021/03/22 01:35:13;;;;;;;20.77;11.20;;;;;;;;;;5105250;28;20719;-78
2021/03/22 01:37:40;;;;;;;19.77;10.93;;;;;;;;;;5098327;28;20269;-78
2021/03/22 01:40:13;;;;;;;17.03;11.33;;;;;;;;;;5098285;28;20237;-76
2021/03/22 01:42:45;;;;;;;18.20;11.60;;;;;;;;;;5098189;28;20313;-75
2021/03/22 01:45:13;;;;;;;20.47;12.13;;;;;;;;;;5098423;28;20225;-77
2021/03/22 01:47:41;;;;;;;22.97;12.73;;;;;;;;;;5106420;28;20250;-77
2021/03/22 01:50:10;;;;;;;21.37;11.33;;;;;;;;;;5097959;28;20225;-77
2021/03/22 01:52:39;;;;;;;19.57;11.27;;;;;;;;;;5097903;28;20284;-77
2021/03/22 01:55:08;;;;;;;19.80;10.83;;;;;;;;;;5098172;28;20225;-77
2021/03/22 01:57:36;;;;;;;18.60;10.87;;;;;;;;;;5097773;28;20255;-78
2021/03/22 02:00:11;;;;;;;20.40;11.47;;;;;;;;;;5097840;28;20733;-77
2021/03/22 02:02:39;;;;;;;17.97;11.27;;;;;;;;;;5130702;28;20276;-78
2021/03/22 02:05:09;;;;;;;18.07;11.07;;;;;;;;;;5137162;28;20270;-78
2021/03/22 02:07:36;;;;;;;18.27;10.23;;;;;;;;;;5129437;27;20239;-77
2021/03/22 02:10:04;;;;;;;19.17;11.23;;;;;;;;;;5135427;28;20734;-77
2021/03/22 02:12:31;;;;;;;18.23;11.47;;;;;;;;;;5136290;27;20208;-77
2021/03/22 02:14:58;;;;;;;20.03;11.23;;;;;;;;;;5136347;27;20588;-77
2021/03/22 02:17:29;;;;;;;20.80;12.33;;;;;;;;;;5132114;27;20201;-77
2021/03/22 02:20:17;;;;;;;17.30;10.87;;;;;;;;;;5134305;27;20207;-77
2021/03/22 02:23:17;;;;;;;15.57;10.53;;;;;;;;;;5128434;28;20220;-77
2021/03/22 02:25:48;;;;;;;17.63;10.87;;;;;;;;;;5063945;28;20258;-77
2021/03/22 02:28:39;;;;;;;23.40;11.13;;;;;;;;;;5058920;28;22012;-76
2021/03/22 02:31:26;;;;;;;17.70;9.93;;;;;;;;;;5099548;28;20240;-76
2021/03/22 02:34:01;;;;;;;16.60;10.73;;;;;;;;;;5122042;28;20205;-77
2021/03/22 02:36:31;;;;;;;20.33;11.57;;;;;;;;;;5107897;28;20628;-76
2021/03/22 02:38:59;;;;;;;17.73;10.27;;;;;;;;;;5108754;28;20291;-77
2021/03/22 02:41:28;;;;;;;20.17;11.70;;;;;;;;;;5121681;28;20254;-77
2021/03/22 02:44:02;;;;;;;17.10;10.17;;;;;;;;;;5122046;28;20247;-77
2021/03/22 02:46:29;;;;;;;16.43;10.67;;;;;;;;;;5119468;28;20690;-77
2021/03/22 02:48:57;;;;;;;19.70;10.47;;;;;;;;;;5101475;28;20300;-77
2021/03/22 02:51:27;;;;;;;16.40;10.60;;;;;;;;;;5101107;28;20237;-78
2021/03/22 02:53:56;;;;;;;17.67;10.20;;;;;;;;;;5101287;28;20259;-78
2021/03/22 02:56:29;;;;;;;18.00;9.83;;;;;;;;;;5101349;28;20244;-79
2021/03/22 02:58:59;;;;;;;19.90;10.60;;;;;;;;;;5101475;28;20288;-78
2021/03/22 03:01:28;;;;;;;18.17;9.17;;;;;;;;;;5100927;28;20330;-77
2021/03/22 03:03:56;;;;;;;17.73;9.77;;;;;;;;;;5101363;28;20270;-79
2021/03/22 03:06:38;;;;;;;14.13;8.97;;;;;;;;;;5107391;28;20574;-80
2021/03/22 03:09:06;;;;;;;15.90;9.70;;;;;;;;;;5121420;28;20240;-78
2021/03/22 03:11:33;;;;;;;15.43;9.27;;;;;;;;;;5121117;28;20596;-79
2021/03/22 03:14:00;;;;;;;17.27;9.20;;;;;;;;;;5121480;28;20236;-76
2021/03/22 03:16:27;;;;;;;15.00;9.37;;;;;;;;;;5121506;28;20205;-77
2021/03/22 03:18:54;;;;;;;17.40;9.87;;;;;;;;;;5121153;28;20291;-79
2021/03/22 03:21:21;;;;;;;16.77;8.70;;;;;;;;;;5121127;28;20292;-79
2021/03/22 03:23:48;;;;;;;15.47;7.83;;;;;;;;;;5121038;28;20228;-80
2021/03/22 03:26:16;;;;;;;11.33;7.87;;;;;;;;;;5111661;28;20272;-78
2021/03/22 03:28:43;;;;;;;11.77;8.13;;;;;;;;;;5100447;28;20241;-78
2021/03/22 03:31:10;;;;;;;19.40;8.00;;;;;;;;;;5100797;28;20250;-80
2021/03/22 03:33:37;;;;;;;12.97;7.90;;;;;;;;;;5100419;28;20216;-78
2021/03/22 03:36:05;;;;;;;12.17;7.30;;;;;;;;;;5107459;28;20816;-78
2021/03/22 03:38:32;;;;;;;13.93;8.10;;;;;;;;;;5098998;28;20642;-78
2021/03/22 03:40:59;;;;;;;13.73;7.17;;;;;;;;;;5100428;28;20236;-78
2021/03/22 03:43:27;;;;;;;11.47;7.37;;;;;;;;;;5100003;28;20260;-79
2021/03/22 03:45:54;;;;;;;11.47;6.90;;;;;;;;;;5106407;28;20308;-78
2021/03/22 03:48:23;;;;;;;10.33;6.87;;;;;;;;;;5102916;28;20638;-79
2021/03/22 03:50:51;;;;;;;12.57;6.83;;;;;;;;;;5100061;28;20288;-80
2021/03/22 03:53:18;;;;;;;11.33;6.40;;;;;;;;;;5099668;28;20261;-79
2021/03/22 03:55:47;;;;;;;17.40;6.77;;;;;;;;;;5107422;28;20257;-78
2021/03/22 03:58:14;;;;;;;11.20;6.80;;;;;;;;;;5108426;28;20237;-78
2021/03/22 04:00:43;;;;;;;15.60;6.73;;;;;;;;;;5110506;28;20228;-79
2021/03/22 04:03:18;;;;;;;11.53;5.93;;;;;;;;;;5107895;28;20287;-80
2021/03/22 04:05:46;;;;;;;11.70;5.37;;;;;;;;;;5109069;28;20212;-79
2021/03/22 04:08:13;;;;;;;9.77;5.17;;;;;;;;;;5109861;28;20284;-79
2021/03/22 04:10:40;;;;;;;9.97;5.57;;;;;;;;;;5110499;28;20705;-80
2021/03/22 04:13:07;;;;;;;11.17;5.77;;;;;;;;;;5111392;28;20312;-79
2021/03/22 04:15:34;;;;;;;13.53;5.70;;;;;;;;;;5119629;28;20316;-78
2021/03/22 04:18:02;;;;;;;9.70;5.37;;;;;;;;;;5120252;28;20258;-77
2021/03/22 04:20:29;;;;;;;7.07;4.93;;;;;;;;;;5119730;28;20435;-78
2021/03/22 04:22:56;;;;;;;11.70;5.63;;;;;;;;;;5119540;28;20759;-80
2021/03/22 04:25:23;;;;;;;10.97;5.10;;;;;;;;;;5117620;28;20504;-79
2021/03/22 04:27:50;;;;;;;8.73;4.93;;;;;;;;;;5098977;28;20947;-78
2021/03/22 04:30:18;;;;;;;14.67;5.67;;;;;;;;;;5097002;28;20558;-79
2021/03/22 04:32:49;;;;;;;12.53;5.33;;;;;;;;;;5097479;28;20538;-79
2021/03/22 04:35:18;;;;;;;10.50;4.93;;;;;;;;;;5104131;28;20494;-78
2021/03/22 04:37:49;;;;;;;14.30;4.73;;;;;;;;;;5097020;28;20447;-79
2021/03/22 04:40:16;;;;;;;7.87;4.70;;;;;;;;;;5097674;28;20443;-79
2021/03/22 04:42:43;;;;;;;7.97;4.60;;;;;;;;;;5097665;28;20563;-78
2021/03/22 04:45:11;;;;;;;8.50;4.70;;;;;;;;;;5098709;28;20517;-79
2021/03/22 04:47:38;;;;;;;9.47;5.43;;;;;;;;;;5107458;28;20958;-79
2021/03/22 04:50:06;;;;;;;10.60;4.23;;;;;;;;;;5098766;28;20527;-79
2021/03/22 04:52:34;;;;;;;11.80;5.13;;;;;;;;;;5098877;28;20471;-78
2021/03/22 04:55:01;;;;;;;8.30;4.60;;;;;;;;;;5098895;28;20467;-78
2021/03/22 04:57:29;;;;;;;6.60;4.23;;;;;;;;;;5099112;28;20483;-78
2021/03/22 04:59:57;;;;;;;9.53;4.50;;;;;;;;;;5105746;28;20500;-78
2021/03/22 05:02:24;;;;;;;8.67;4.73;;;;;;;;;;5119133;27;21011;-78
2021/03/22 05:04:57;;;;;;;11.90;4.53;;;;;;;;;;5118920;28;20864;-79
2021/03/22 05:07:24;;;;;;;12.37;4.37;;;;;;;;;;5118988;28;20438;-78
2021/03/22 05:09:53;;;;;;;12.30;5.07;;;;;;;;;;5119206;28;20451;-79
2021/03/22 05:12:20;;;;;;;9.47;4.30;;;;;;;;;;5119050;28;20491;-78
2021/03/22 05:14:47;;;;;;;10.97;4.67;;;;;;;;;;5119060;28;20498;-79
2021/03/22 05:17:14;;;;;;;9.83;4.30;;;;;;;;;;5118977;28;20457;-79
2021/03/22 05:19:42;;;;;;;9.00;3.47;;;;;;;;;;5119010;28;20824;-78
2021/03/22 05:22:09;;;;;;;7.80;4.60;;;;;;;;;;5118603;28;20510;-79
2021/03/22 05:24:36;;;;;;;10.33;3.80;;;;;;;;;;5118981;28;20458;-78
2021/03/22 05:27:04;;;;;;;10.27;3.07;;;;;;;;;;5102813;28;20527;-79
2021/03/22 05:29:31;;;;;;;6.00;3.30;;;;;;;;;;5098209;28;20551;-78
2021/03/22 05:31:58;;;;;;;7.70;3.77;;;;;;;;;;5098532;28;20448;-79
2021/03/22 05:34:26;;;;;;;7.90;3.67;;;;;;;;;;5101243;28;20530;-79
2021/03/22 05:36:53;;;;;;;11.60;4.17;;;;;;;;;;5101410;28;20871;-79
2021/03/22 05:39:20;;;;;;;13.20;4.00;;;;;;;;;;5098092;28;20448;-79
2021/03/22 05:42:07;;;;;;;7.97;3.30;;;;;;;;;;5097831;28;20535;-78
2021/03/22 05:44:46;;;;;;;10.47;3.27;;;;;;;;;;5098102;28;20483;-78
2021/03/22 05:47:18;;;;;;;7.00;2.87;;;;;;;;;;5106859;28;20809;-79
2021/03/22 05:49:49;;;;;;;13.17;4.30;;;;;;;;;;5098320;28;20501;-79
2021/03/22 05:52:20;;;;;;;8.93;3.70;;;;;;;;;;5097676;28;20607;-78
2021/03/22 05:55:04;;;;;;;13.40;3.30;;;;;;;;;;5098036;28;20506;-79
2021/03/22 05:58:04;;;;;;;10.60;3.67;;;;;;;;;;5097937;28;20841;-79
2021/03/22 06:00:43;;;;;;;12.40;3.80;;;;;;;;;;5066379;28;20476;-79
2021/03/22 06:03:15;;;;;;;9.97;3.33;;;;;;;;;;5075366;28;20514;-79
2021/03/22 06:05:44;;;;;;;10.50;3.53;;;;;;;;;;5099554;28;20220;-79
2021/03/22 06:08:27;;;;;;;6.37;2.73;;;;;;;;;;5118147;28;20967;-78
2021/03/22 06:10:55;;;;;;;18.87;3.60;;;;;;;;;;5118110;28;21089;-79
2021/03/22 06:13:26;;;;;;;10.70;3.00;;;;;;;;;;5118104;28;20438;-79
2021/03/22 06:15:58;;;;;;;14.03;3.60;;;;;;;;;;5118182;28;20494;-79
2021/03/22 06:18:27;;;;;;;13.07;3.23;;;;;;;;;;5118318;28;20443;-79
2021/03/22 06:20:55;;;;;;;11.33;3.47;;;;;;;;;;5117865;28;20443;-79
2021/03/22 06:23:23;;;;;;;7.83;3.07;;;;;;;;;;5117764;28;20564;-79
2021/03/22 06:25:51;;;;;;;15.43;3.57;;;;;;;;;;5111905;28;20525;-79
2021/03/22 06:28:19;;;;;;;10.77;3.57;;;;;;;;;;5097601;28;20507;-78
2021/03/22 06:30:54;;;;;;;12.07;3.10;;;;;;;;;;5097483;28;20443;-79
2021/03/22 06:33:27;;;;;;;9.93;2.77;;;;;;;;;;5097892;28;20448;-79
2021/03/22 06:35:54;;;;;;;15.90;2.93;;;;;;;;;;5104227;28;20491;-79
2021/03/22 06:38:22;;;;;;;9.30;2.93;;;;;;;;;;5097252;28;20834;-79
2021/03/22 06:40:49;;;;;;;10.60;3.43;;;;;;;;;;5097669;28;20244;-79
2021/03/22 06:43:17;;;;;;;8.77;3.37;;;;;;;;;;5097197;28;20487;-78
2021/03/22 06:45:45;;;;;;;8.87;2.83;;;;;;;;;;5102126;28;20264;-79
2021/03/22 06:48:27;;;;;;;9.97;3.23;;;;;;;;;;5100680;28;20251;-79
2021/03/22 06:51:14;;;;;;;13.23;3.60;;;;;;;;;;5095967;28;20206;-78
2021/03/22 06:53:43;;;;;;;11.33;3.37;;;;;;;;;;5105861;28;20604;-79
2021/03/22 06:56:14;;;;;;;11.67;3.40;;;;;;;;;;5117471;28;20312;-79
2021/03/22 06:58:42;;;;;;;16.23;3.43;;;;;;;;;;5117950;28;20291;-79
2021/03/22 07:01:16;;;;;;;13.30;3.57;;;;;;;;;;5117854;28;20649;-79
2021/03/22 07:03:43;;;;;;;9.23;3.23;;;;;;;;;;5117809;28;20229;-80
2021/03/22 07:06:18;;;;;;;14.77;4.57;;;;;;;;;;5117251;27;20255;-76
2021/03/22 07:08:46;;;;;;;16.70;4.53;;;;;;;;;;5117916;28;20252;-79
2021/03/22 07:11:15;;;;;;;14.60;4.47;;;;;;;;;;5117698;28;20209;-78
2021/03/22 07:13:51;;;;;;;12.30;3.90;;;;;;;;;;5120868;28;20268;-78
2021/03/22 07:16:18;;;;;;;8.13;3.57;;;;;;;;;;5121085;28;20256;-77
2021/03/22 07:19:03;;;;;;;13.73;4.17;;;;;;;;;;5121335;27;20241;-76
2021/03/22 07:21:31;;;;;;;12.03;3.93;;;;;;;;;;5120823;28;20735;-77
2021/03/22 07:24:07;;;;;;;11.43;3.73;;;;;;;;;;5121001;28;20252;-77
2021/03/22 07:26:40;;;;;;;8.97;3.70;;;;;;;;;;5108941;28;20205;-77
2021/03/22 07:29:20;;;;;;;12.73;4.20;;;;;;;;;;5100281;28;20233;-79
2021/03/22 07:31:49;;;;;;;11.20;4.03;;;;;;;;;;5100756;28;20281;-77
2021/03/22 07:34:21;;;;;;;12.40;4.30;;;;;;;;;;5102597;28;20260;-79
2021/03/22 07:36:52;;;;;;;12.33;4.07;;;;;;;;;;5104385;28;20201;-79
2021/03/22 07:39:32;;;;;;;10.73;4.33;;;;;;;;;;5100542;28;20213;-78
2021/03/22 07:42:19;;;;;;;13.80;3.50;;;;;;;;;;5100302;28;20728;-79
2021/03/22 07:44:51;;;;;;;13.27;4.67;;;;;;;;;;5096910;28;20264;-79
2021/03/22 07:47:27;;;;;;;13.17;4.70;;;;;;;;;;5109068;28;20451;-79
2021/03/22 07:50:02;;;;;;;15.53;4.40;;;;;;;;;;5100335;28;20477;-80
2021/03/22 07:52:32;;;;;;;12.87;4.20;;;;;;;;;;5100178;28;20489;-79
2021/03/22 07:55:09;;;;;;;13.17;4.20;;;;;;;;;;5100069;28;20492;-80
2021/03/22 07:57:40;;;;;;;10.27;3.80;;;;;;;;;;5099860;28;20884;-79
2021/03/22 08:00:14;;;;;;;8.20;3.67;;;;;;;;;;5100209;28;20459;-79
2021/03/22 08:02:47;;;;;;;12.87;4.23;;;;;;;;;;5100052;28;20511;-80
2021/03/22 08:05:21;;;;;;;16.40;4.53;;;;;;;;;;5100044;28;20498;-77
2021/03/22 08:07:58;;;;;;;10.73;3.10;;;;;;;;;;5099714;28;20473;-76
2021/03/22 08:10:30;;;;;;;10.70;4.13;;;;;;;;;;5100005;28;20482;-76
2021/03/22 08:13:00;;;;;;;9.50;3.57;;;;;;;;;;5106603;28;20439;-74
2021/03/22 08:15:33;;;;;;;15.40;4.27;;;;;;;;;;5119876;28;20973;-74
2021/03/22 08:18:06;;;;;;;14.10;4.33;;;;;;;;;;5120005;28;21119;-74
2021/03/22 08:20:34;;;;;;;10.53;4.47;;;;;;;;;;5120065;27;20652;-74
2021/03/22 08:23:04;;;;;;;10.13;4.43;;;;;;;;;;5119549;28;20672;-74
2021/03/22 08:25:37;;;;;;;13.57;4.57;;;;;;;;;;5116216;28;20274;-74
2021/03/22 08:28:11;;;;;;;11.87;4.07;;;;;;;;;;5099241;28;20267;-74
2021/03/22 08:30:43;;;;;;;15.90;4.67;;;;;;;;;;5099590;28;20232;-74
2021/03/22 08:33:16;;;;;;;11.60;3.80;;;;;;;;;;5099323;28;20874;-74
2021/03/22 08:35:49;;;;;;;15.87;4.30;;;;;;;;;;5113180;28;20220;-74
2021/03/22 08:38:17;;;;;;;12.23;4.33;;;;;;;;;;5104934;28;20292;-74
2021/03/22 08:40:49;;;;;;;14.20;4.60;;;;;;;;;;5099380;28;20251;-76
2021/03/22 08:43:21;;;;;;;9.77;3.77;;;;;;;;;;5098734;28;20430;-76
2021/03/22 08:45:56;;;;;;;9.80;4.47;;;;;;;;;;5104089;28;20595;-76
2021/03/22 08:48:26;;;;;;;16.47;5.10;;;;;;;;;;5101555;28;20314;-77
2021/03/22 08:50:53;;;;;;;14.40;4.40;;;;;;;;;;5098752;28;20270;-78
2021/03/22 08:53:23;;;;;;;15.00;4.83;;;;;;;;;;5098950;28;20378;-76
2021/03/22 08:55:54;;;;;;;14.93;4.70;;;;;;;;;;5105180;28;20225;-77
2021/03/22 08:58:24;;;;;;;19.10;4.20;;;;;;;;;;5108385;28;20251;-80
2021/03/22 09:00:53;;;;;;;10.77;4.43;;;;;;;;;;5109014;28;20284;-79
2021/03/22 09:03:31;;;;;;;21.77;5.20;;;;;;;;;;5109836;28;20213;-80
2021/03/22 09:06:08;;;;;;;14.23;4.60;;;;;;;;;;5111447;28;20270;-79
2021/03/22 09:08:36;;;;;;;19.10;5.67;;;;;;;;;;5109723;28;20204;-80
2021/03/22 09:11:15;;;;;;;15.80;5.27;;;;;;;;;;5112024;28;20565;-79
2021/03/22 09:13:50;;;;;;;16.43;5.27;;;;;;;;;;5109353;28;20254;-79
2021/03/22 09:16:32;;;;;;;14.73;4.70;;;;;;;;;;5106646;28;20216;-80
2021/03/22 09:19:27;;;;;;;12.17;5.90;;;;;;;;;;5111481;28;20204;-79
2021/03/22 09:22:09;;;;;;;11.33;4.73;;;;;;;;;;5109693;28;20301;-79
2021/03/22 09:24:46;;;;;;;19.33;6.10;;;;;;;;;;5109572;28;20288;-79
2021/03/22 09:27:32;;;;;;;15.67;4.87;;;;;;;;;;5110429;28;20260;-80
2021/03/22 09:30:16;;;;;;;15.00;5.60;;;;;;;;;;5108895;28;20304;-79
2021/03/22 09:32:44;;;;;;;15.20;5.27;;;;;;;;;;5101670;27;20329;-80
2021/03/22 09:35:29;;;;;;;12.17;4.43;;;;;;;;;;5109864;28;20300;-78
2021/03/22 09:37:59;;;;;;;11.00;4.50;;;;;;;;;;5108734;28;20265;-80
2021/03/22 09:40:44;;;;;;;14.83;5.47;;;;;;;;;;5111529;28;20702;-80
2021/03/22 09:43:23;;;;;;;12.03;4.40;;;;;;;;;;5103577;27;20297;-80
2021/03/22 09:46:03;;;;;;;14.87;6.80;;;;;;;;;;5116229;28;20212;-75
2021/03/22 09:48:32;;;;;;;16.70;5.20;;;;;;;;;;5113262;28;20253;-78
2021/03/22 09:51:14;;;;;;;11.17;4.07;;;;;;;;;;5108176;28;20569;-76
2021/03/22 09:53:50;;;;;;;15.33;4.90;;;;;;;;;;5097771;28;20297;-75
2021/03/22 09:56:24;;;;;;;18.30;5.27;;;;;;;;;;5097569;28;20233;-74
2021/03/22 09:58:52;;;;;;;12.20;5.00;;;;;;;;;;5097883;28;20246;-74
2021/03/22 10:01:36;;;;;;;15.83;5.07;;;;;;;;;;5097412;28;20715;-74
2021/03/22 10:04:19;;;;;;;8.93;4.60;;;;;;;;;;5104253;28;20271;-75
2021/03/22 10:06:55;;;;;;;15.00;4.90;;;;;;;;;;5108023;28;20713;-76
2021/03/22 10:09:27;;;;;;;14.30;5.13;;;;;;;;;;5110608;28;20205;-77
2021/03/22 10:11:56;;;;;;;15.83;4.57;;;;;;;;;;5097356;28;20259;-77
2021/03/22 10:14:30;;;;;;;9.80;4.70;;;;;;;;;;5109882;28;20245;-76
2021/03/22 10:16:58;;;;;;;13.13;4.73;;;;;;;;;;5097688;28;20236;-76
2021/03/22 10:19:26;;;;;;;9.57;5.20;;;;;;;;;;5097205;28;20263;-76
2021/03/22 10:21:54;;;;;;;16.10;5.17;;;;;;;;;;5097112;28;20577;-77
2021/03/22 10:24:27;;;;;;;10.40;4.80;;;;;;;;;;5108821;28;20232;-76
2021/03/22 10:26:56;;;;;;;12.10;4.87;;;;;;;;;;5096960;28;20628;-77
2021/03/22 10:29:26;;;;;;;17.33;5.30;;;;;;;;;;5096734;28;20601;-77
2021/03/22 10:32:05;;;;;;;18.60;4.93;;;;;;;;;;5100318;28;20228;-77
2021/03/22 10:34:39;;;;;;;9.90;4.17;;;;;;;;;;5108884;28;20216;-76
2021/03/22 10:37:08;;;;;;;12.57;4.87;;;;;;;;;;5110073;28;20244;-77
2021/03/22 10:39:37;;;;;;;14.60;4.30;;;;;;;;;;5117193;28;20209;-77
2021/03/22 10:42:20;;;;;;;13.63;5.53;;;;;;;;;;5104236;28;20255;-76
2021/03/22 10:44:47;;;;;;;15.83;4.63;;;;;;;;;;5105214;28;20320;-76
2021/03/22 10:47:16;;;;;;;14.13;4.20;;;;;;;;;;5102570;28;20241;-76
2021/03/22 10:49:44;;;;;;;14.07;4.13;;;;;;;;;;5100780;28;20206;-76
2021/03/22 10:52:21;;;;;;;9.50;4.93;;;;;;;;;;5100452;28;20242;-76
2021/03/22 10:54:49;;;;;;;12.63;5.27;;;;;;;;;;5100703;28;20248;-75
2021/03/22 10:57:18;;;;;;;13.83;4.80;;;;;;;;;;5100578;28;20202;-77
2021/03/22 10:59:47;;;;;;;11.47;4.70;;;;;;;;;;5100798;28;20202;-77
2021/03/22 11:02:26;;;;;;;12.90;4.47;;;;;;;;;;5100660;28;20293;-78
2021/03/22 11:04:53;;;;;;;16.33;4.57;;;;;;;;;;5114251;28;20316;-75
2021/03/22 11:07:22;;;;;;;14.70;4.33;;;;;;;;;;5100293;28;20210;-75
2021/03/22 11:09:52;;;;;;;9.37;4.20;;;;;;;;;;5100364;28;20292;-77
2021/03/22 11:12:22;;;;;;;12.77;4.93;;;;;;;;;;5100451;28;20269;-76
2021/03/22 11:14:52;;;;;;;14.73;4.87;;;;;;;;;;5100363;28;20217;-77
2021/03/22 11:17:20;;;;;;;9.53;4.30;;;;;;;;;;5100133;28;20240;-76
2021/03/22 11:19:49;;;;;;;13.53;4.70;;;;;;;;;;5103100;28;20204;-77
2021/03/22 11:22:22;;;;;;;11.63;4.33;;;;;;;;;;5111112;28;20220;-78
2021/03/22 11:24:50;;;;;;;12.27;4.63;;;;;;;;;;5113360;28;20280;-76
2021/03/22 11:27:17;;;;;;;14.17;4.40;;;;;;;;;;5110744;28;20225;-78
2021/03/22 11:29:54;;;;;;;11.23;4.07;;;;;;;;;;5105360;28;20286;-78
2021/03/22 11:32:23;;;;;;;14.10;4.10;;;;;;;;;;5100044;28;20652;-82
2021/03/22 11:34:53;;;;;;;9.13;4.77;;;;;;;;;;5106657;28;20220;-78
2021/03/22 11:37:22;;;;;;;12.70;4.00;;;;;;;;;;5102748;28;20217;-79
2021/03/22 11:39:56;;;;;;;14.00;4.43;;;;;;;;;;5100308;28;20297;-80
2021/03/22 11:42:27;;;;;;;8.37;3.97;;;;;;;;;;5120256;27;20284;-81
2021/03/22 11:44:54;;;;;;;13.97;3.83;;;;;;;;;;5120083;28;20263;-81
2021/03/22 11:47:43;;;;;;;9.30;4.33;;;;;;;;;;5114277;28;20606;-79
2021/03/22 11:50:28;;;;;;;17.13;4.30;;;;;;;;;;5097027;28;20669;-80
2021/03/22 11:53:04;;;;;;;10.97;3.60;;;;;;;;;;5105101;27;20565;-80
2021/03/22 11:55:33;;;;;;;11.50;3.73;;;;;;;;;;5113721;28;20636;-81
2021/03/22 11:58:01;;;;;;;11.67;4.10;;;;;;;;;;5110788;28;20673;-80
2021/03/22 12:00:30;;;;;;;18.40;4.37;;;;;;;;;;5110057;28;20627;-81
2021/03/22 12:03:00;;;;;;;16.17;4.07;;;;;;;;;;5111063;28;20201;-82
2021/03/22 12:05:29;;;;;;;14.60;4.67;;;;;;;;;;5110937;27;20309;-81
2021/03/22 12:07:57;;;;;;;17.63;4.83;;;;;;;;;;5110550;28;20233;-82
2021/03/22 12:10:27;;;;;;;10.53;4.10;;;;;;;;;;5111233;28;20200;-81
2021/03/22 12:12:55;;;;;;;11.20;3.43;;;;;;;;;;5114026;28;20554;-84
2021/03/22 12:15:23;;;;;;;10.23;4.40;;;;;;;;;;5119765;28;20233;-84
2021/03/22 12:17:53;;;;;;;13.63;3.90;;;;;;;;;;5099792;27;20210;-83
2021/03/22 12:20:22;;;;;;;11.00;3.50;;;;;;;;;;5099223;28;20216;-83
2021/03/22 12:22:49;;;;;;;11.30;3.53;;;;;;;;;;5098939;28;20224;-79
2021/03/22 12:25:17;;;;;;;16.83;4.23;;;;;;;;;;5099046;28;20230;-80
2021/03/22 12:27:45;;;;;;;13.67;4.47;;;;;;;;;;5098707;28;20656;-80
2021/03/22 12:30:13;;;;;;;11.67;4.23;;;;;;;;;;5098744;28;20237;-76
2021/03/22 12:32:40;;;;;;;9.70;3.63;;;;;;;;;;5099128;28;20300;-81
2021/03/22 12:35:08;;;;;;;10.03;3.60;;;;;;;;;;5105444;28;20718;-81
2021/03/22 12:37:36;;;;;;;13.43;4.40;;;;;;;;;;5098439;28;20601;-79
2021/03/22 12:40:04;;;;;;;11.80;3.43;;;;;;;;;;5101528;28;20296;-78
2021/03/22 12:42:31;;;;;;;13.63;4.03;;;;;;;;;;5118908;28;20205;-79
2021/03/22 12:45:01;;;;;;;14.90;4.07;;;;;;;;;;5118942;28;20315;-78
2021/03/22 12:47:29;;;;;;;16.30;4.87;;;;;;;;;;5112608;27;20237;-77
2021/03/22 12:49:57;;;;;;;10.33;4.03;;;;;;;;;;5098751;28;20209;-79
2021/03/22 12:52:24;;;;;;;10.33;4.20;;;;;;;;;;5112325;28;20208;-80
2021/03/22 12:54:55;;;;;;;10.47;3.77;;;;;;;;;;5109125;28;20696;-79
2021/03/22 12:57:24;;;;;;;11.13;4.40;;;;;;;;;;5098480;28;20206;-80
2021/03/22 12:59:53;;;;;;;8.70;3.73;;;;;;;;;;5098589;28;20237;-79
2021/03/22 13:02:22;;;;;;;9.47;3.90;;;;;;;;;;5098246;28;20209;-78
2021/03/22 13:04:50;;;;;;;13.00;4.27;;;;;;;;;;5098096;28;20232;-79
2021/03/22 13:07:17;;;;;;;12.70;3.80;;;;;;;;;;5097761;28;20581;-77
2021/03/22 13:09:45;;;;;;;18.83;4.47;;;;;;;;;;5097938;28;20296;-76
2021/03/22 13:12:17;;;;;;;7.83;3.60;;;;;;;;;;5098077;28;20721;-76
2021/03/22 13:14:44;;;;;;;12.47;4.07;;;;;;;;;;5098183;28;20221;-79
2021/03/22 13:17:12;;;;;;;14.07;4.83;;;;;;;;;;5097877;28;20563;-78
2021/03/22 13:19:40;;;;;;;19.10;4.50;;;;;;;;;;5097749;28;20213;-78
2021/03/22 13:22:07;;;;;;;10.90;3.60;;;;;;;;;;5097599;28;20683;-78
2021/03/22 13:24:35;;;;;;;12.37;3.83;;;;;;;;;;5105716;28;20602;-78
2021/03/22 13:27:03;;;;;;;10.60;3.80;;;;;;;;;;5118194;28;20314;-78
2021/03/22 13:29:30;;;;;;;13.27;3.57;;;;;;;;;;5118048;28;20239;-78
2021/03/22 13:31:57;;;;;;;17.17;4.90;;;;;;;;;;5118169;28;20226;-78
2021/03/22 13:34:27;;;;;;;9.30;4.20;;;;;;;;;;5117944;28;20702;-78
2021/03/22 13:36:55;;;;;;;10.33;3.23;;;;;;;;;;5101415;28;20289;-78
2021/03/22 13:39:26;;;;;;;11.70;3.73;;;;;;;;;;5104209;28;20750;-78
2021/03/22 13:41:55;;;;;;;8.57;4.03;;;;;;;;;;5106820;28;20653;-77
2021/03/22 13:44:22;;;;;;;9.90;3.80;;;;;;;;;;5097488;28;20267;-77
2021/03/22 13:46:49;;;;;;;15.60;4.20;;;;;;;;;;5100028;28;20224;-79
2021/03/22 13:49:17;;;;;;;12.27;3.23;;;;;;;;;;5097907;28;20223;-79
2021/03/22 13:51:44;;;;;;;12.03;3.60;;;;;;;;;;5097421;28;20292;-79
2021/03/22 13:54:14;;;;;;;13.70;3.80;;;;;;;;;;5097342;28;20644;-78
2021/03/22 13:56:43;;;;;;;7.37;3.37;;;;;;;;;;5097267;28;20209;-79
2021/03/22 13:59:16;;;;;;;13.90;4.00;;;;;;;;;;5097469;28;20205;-79
2021/03/22 14:01:43;;;;;;;10.67;3.27;;;;;;;;;;5097292;28;20300;-77
2021/03/22 14:04:11;;;;;;;11.23;4.10;;;;;;;;;;5097032;28;20236;-79
2021/03/22 14:06:38;;;;;;;10.53;3.83;;;;;;;;;;5096834;28;20215;-77
2021/03/22 14:09:05;;;;;;;14.40;4.03;;;;;;;;;;5097408;28;20197;-78
2021/03/22 14:11:34;;;;;;;10.23;3.90;;;;;;;;;;5097332;28;20258;-79
2021/03/22 14:14:01;;;;;;;7.63;4.27;;;;;;;;;;5097332;28;20205;-79
2021/03/22 14:16:28;;;;;;;8.40;4.03;;;;;;;;;;5097048;28;20289;-78
2021/03/22 14:18:55;;;;;;;11.13;3.90;;;;;;;;;;5105126;28;20208;-78
2021/03/22 14:21:22;;;;;;;12.10;3.40;;;;;;;;;;5101071;28;20202;-77
2021/03/22 14:23:49;;;;;;;10.53;3.60;;;;;;;;;;5131648;27;20251;-78
2021/03/22 14:26:17;;;;;;;11.07;3.70;;;;;;;;;;5129474;27;20307;-78
2021/03/22 14:28:45;;;;;;;11.63;3.97;;;;;;;;;;5136268;27;20234;-77
2021/03/22 14:31:13;;;;;;;11.90;3.23;;;;;;;;;;5131752;27;20621;-79
2021/03/22 14:33:41;;;;;;;9.57;3.80;;;;;;;;;;5124640;27;20247;-78
2021/03/22 14:36:09;;;;;;;9.50;3.20;;;;;;;;;;5121797;27;20247;-78
2021/03/22 14:38:36;;;;;;;12.77;3.80;;;;;;;;;;5138400;27;20243;-78
2021/03/22 14:41:03;;;;;;;11.57;3.83;;;;;;;;;;5140542;27;20678;-78
2021/03/22 14:43:30;;;;;;;14.53;4.47;;;;;;;;;;5136506;27;20605;-80
2021/03/22 14:45:58;;;;;;;11.77;3.90;;;;;;;;;;5131871;27;20228;-76
2021/03/22 14:48:25;;;;;;;10.17;3.47;;;;;;;;;;5103646;28;20205;-79
2021/03/22 14:50:52;;;;;;;12.27;4.17;;;;;;;;;;5101073;28;21001;-79